KMTP

Montauk Airport

Montauk, New York, USA
METAR KMTP 241154Z AUTO 29005KT 06/04 A3015 RMK AO1 SLP209 70021 T00560044 10056 20039 53016
Observed Flight Rules
Feb-24 @ 11:54 UTC (30 minutes ago)
Wind
290° at 5 knots
Temperatures Readings
Current 6°C / 43°F
Dewpoint 4°C / 39°F
Humidity 87%
Altimeter 30.15" Hg
Pressure 1020.9 hPa
Elevation 2
METAR KMTP 241154Z AUTO 29005KT 06/04 A3015 RMK AO1 SLP209 70021 T00560044 10056 20039 53016
Observed Flight Rules
Feb-24 @ 11:54 UTC
(30 minutes ago)
Wind
290° at 5 knots
Temperature Dewpoint
6°C / 43°F 4°C / 39°F
Humidity Altimeter Pressure
87% 30.15" Hg 1020.9 hPa